| Date | Time | Temp. (oF) | Dew Point (oF) | Rel. Hum. (%) | Press. (in.) | Wind Dir. | Wind Speed (mph) | Hourly Rainfall (in.) |
|
|---|---|---|---|---|---|---|---|---|---|
| 1 | 11/13 | 00:00 | 54 | 38 | 56 | 29.59 | W | 14 | 0.00 |
| 2 | 11/12 | 23:00 | 54 | 37 | 54 | 29.59 | W | 9 | 0.00 |
| 3 | 11/12 | 22:00 | 55 | 38 | 53 | 29.60 | W | 8 | 0.00 |
| 4 | 11/12 | 21:00 | 54 | 47 | 79 | 29.56 | W | 2 | 0.00 |
| 5 | 11/12 | 20:00 | 56 | 49 | 79 | 29.54 | W | 7 | 0.00 |
| 6 | 11/12 | 19:00 | 56 | 50 | 82 | 29.49 | WSW | 4 | 0.00 |
| 7 | 11/12 | 18:00 | 56 | 50 | 81 | 29.48 | SW | 8 | 0.00 |
| 8 | 11/12 | 17:00 | 56 | 49 | 78 | 29.49 | SW | 7 | 0.00 |
| 9 | 11/12 | 16:00 | 58 | 50 | 75 | 29.51 | SW | 12 | 0.00 |
| 10 | 11/12 | 15:00 | 58 | 50 | 76 | 29.53 | SW | 12 | 0.00 |
| 11 | 11/12 | 14:00 | 58 | 51 | 78 | 29.53 | SW | 10 | 0.00 |
| 12 | 11/12 | 13:00 | 56 | 51 | 86 | 29.58 | WSW | 4 | 0.00 |
| 13 | 11/12 | 12:00 | 54 | 50 | 87 | 29.64 | SW | 7 | 0.00 |
| 14 | 11/12 | 11:00 | 52 | 48 | 89 | 29.69 | SW | 6 | 0.06 |
| 15 | 11/12 | 10:00 | 51 | 47 | 87 | 29.77 | SW | 9 | 0.02 |
| 16 | 11/12 | 09:00 | 51 | 46 | 86 | 29.77 | SW | 3 | 0.00 |
| 17 | 11/12 | 08:00 | 49 | 44 | 86 | 29.81 | SW | 4 | 0.00 |
| 18 | 11/12 | 07:00 | 48 | 44 | 89 | 29.81 | SW | 1 | 0.00 |
| 19 | 11/12 | 06:00 | 47 | 43 | 89 | 29.81 | SSE | 2 | 0.00 |
| 20 | 11/12 | 05:00 | 46 | 42 | 89 | 29.86 | SW | 0 | 0.00 |
| 21 | 11/12 | 04:00 | 46 | 42 | 88 | 29.86 | NE | 0 | 0.00 |
| 22 | 11/12 | 03:00 | 46 | 42 | 87 | 29.87 | SSE | 0 | 0.00 |
| 23 | 11/12 | 02:00 | 47 | 42 | 85 | 29.88 | W | 0 | 0.00 |
| 24 | 11/12 | 01:00 | 49 | 43 | 80 | 29.87 | SW | 0 | 0.00 |